Terminal Aerodrome Forecast
Issued by NWS

Home | Current Version | Previous Version | Text Only | Print | Product List | Glossary On
Versions: 1 2 3 4 5 6 7 8 9 10 11 12 13 14 15 16 17
000
FTUS42 KTAE 181745 AAA
TAFECP
TAF AMD
KECP 181745Z 1818/1918 18004KT 6SM -RA SCT015 BKN020 OVC250
     FM182200 22009KT P6SM SCT020 OVC250
     FM190200 18003KT P6SM -RA SCT020 OVC250
     FM190500 18003KT 2SM -RA BR OVC007
     FM191200 21010G20KT 3SM TSRA BKN020CB=

USA.gov is the U.S. government's official web portal to all federal, state and local government web resources and services.